sensor_id;sensor_type;location;lat;lon;timestamp;P1;durP1;ratioP1;P2;durP2;ratioP2
6537;SDS011;3302;52.508;13.454;2022-08-21T00:01:34;5.30;;;4.80;;
6537;SDS011;3302;52.508;13.454;2022-08-21T00:04:06;5.77;;;5.20;;
6537;SDS011;3302;52.508;13.454;2022-08-21T00:06:34;4.83;;;4.40;;
6537;SDS011;3302;52.508;13.454;2022-08-21T00:09:02;6.60;;;4.87;;
6537;SDS011;3302;52.508;13.454;2022-08-21T00:11:29;4.97;;;4.47;;
6537;SDS011;3302;52.508;13.454;2022-08-21T00:13:55;5.37;;;4.87;;
6537;SDS011;3302;52.508;13.454;2022-08-21T00:16:21;5.93;;;4.53;;
6537;SDS011;3302;52.508;13.454;2022-08-21T00:18:47;8.60;;;4.57;;
6537;SDS011;3302;52.508;13.454;2022-08-21T00:21:14;6.30;;;4.47;;
6537;SDS011;3302;52.508;13.454;2022-08-21T00:23:40;5.20;;;4.80;;
6537;SDS011;3302;52.508;13.454;2022-08-21T00:26:06;5.63;;;4.70;;
6537;SDS011;3302;52.508;13.454;2022-08-21T00:28:33;6.27;;;4.97;;
6537;SDS011;3302;52.508;13.454;2022-08-21T00:30:59;5.90;;;5.30;;
6537;SDS011;3302;52.508;13.454;2022-08-21T00:33:25;5.87;;;5.27;;
6537;SDS011;3302;52.508;13.454;2022-08-21T00:35:51;5.30;;;4.80;;
6537;SDS011;3302;52.508;13.454;2022-08-21T00:38:17;6.03;;;5.40;;
6537;SDS011;3302;52.508;13.454;2022-08-21T00:40:49;6.60;;;6.00;;
6537;SDS011;3302;52.508;13.454;2022-08-21T00:43:20;6.47;;;4.77;;
6537;SDS011;3302;52.508;13.454;2022-08-21T00:45:48;5.50;;;5.00;;
6537;SDS011;3302;52.508;13.454;2022-08-21T00:48:14;5.63;;;5.13;;
6537;SDS011;3302;52.508;13.454;2022-08-21T00:50:43;4.90;;;4.30;;
6537;SDS011;3302;52.508;13.454;2022-08-21T00:53:14;7.40;;;4.80;;
6537;SDS011;3302;52.508;13.454;2022-08-21T00:55:41;5.20;;;4.70;;
6537;SDS011;3302;52.508;13.454;2022-08-21T00:58:07;5.93;;;4.53;;
6537;SDS011;3302;52.508;13.454;2022-08-21T01:00:37;5.67;;;4.77;;
6537;SDS011;3302;52.508;13.454;2022-08-21T01:03:06;5.57;;;4.67;;
6537;SDS011;3302;52.508;13.454;2022-08-21T01:05:38;7.83;;;5.43;;
6537;SDS011;3302;52.508;13.454;2022-08-21T01:08:05;5.40;;;4.90;;
6537;SDS011;3302;52.508;13.454;2022-08-21T01:10:32;6.10;;;5.27;;
6537;SDS011;3302;52.508;13.454;2022-08-21T01:13:00;5.93;;;4.80;;
6537;SDS011;3302;52.508;13.454;2022-08-21T01:15:28;5.03;;;4.50;;
6537;SDS011;3302;52.508;13.454;2022-08-21T01:17:59;6.17;;;4.73;;
6537;SDS011;3302;52.508;13.454;2022-08-21T01:20:25;5.37;;;4.80;;
6537;SDS011;3302;52.508;13.454;2022-08-21T01:22:51;5.87;;;5.30;;
6537;SDS011;3302;52.508;13.454;2022-08-21T01:25:17;5.40;;;4.83;;
6537;SDS011;3302;52.508;13.454;2022-08-21T01:27:45;5.60;;;5.10;;
6537;SDS011;3302;52.508;13.454;2022-08-21T01:30:13;7.13;;;4.63;;
6537;SDS011;3302;52.508;13.454;2022-08-21T01:32:42;5.87;;;4.50;;
6537;SDS011;3302;52.508;13.454;2022-08-21T01:35:08;6.03;;;4.57;;
6537;SDS011;3302;52.508;13.454;2022-08-21T01:37:35;6.17;;;4.10;;
6537;SDS011;3302;52.508;13.454;2022-08-21T01:40:01;5.00;;;4.27;;
6537;SDS011;3302;52.508;13.454;2022-08-21T01:42:28;4.90;;;4.30;;
6537;SDS011;3302;52.508;13.454;2022-08-21T01:44:53;4.63;;;4.23;;
6537;SDS011;3302;52.508;13.454;2022-08-21T01:47:19;5.10;;;4.60;;
6537;SDS011;3302;52.508;13.454;2022-08-21T01:49:45;5.10;;;4.60;;
6537;SDS011;3302;52.508;13.454;2022-08-21T01:52:11;5.57;;;4.17;;
6537;SDS011;3302;52.508;13.454;2022-08-21T01:54:37;4.40;;;4.00;;
6537;SDS011;3302;52.508;13.454;2022-08-21T01:57:04;5.47;;;4.23;;
6537;SDS011;3302;52.508;13.454;2022-08-21T01:59:30;5.67;;;4.43;;
6537;SDS011;3302;52.508;13.454;2022-08-21T02:01:56;5.97;;;4.00;;
6537;SDS011;3302;52.508;13.454;2022-08-21T02:04:22;7.27;;;4.20;;
6537;SDS011;3302;52.508;13.454;2022-08-21T02:06:48;6.13;;;4.40;;
6537;SDS011;3302;52.508;13.454;2022-08-21T02:09:15;5.70;;;4.13;;
6537;SDS011;3302;52.508;13.454;2022-08-21T02:11:41;4.03;;;3.50;;
6537;SDS011;3302;52.508;13.454;2022-08-21T02:14:08;6.40;;;4.07;;
6537;SDS011;3302;52.508;13.454;2022-08-21T02:16:40;4.53;;;3.60;;
6537;SDS011;3302;52.508;13.454;2022-08-21T02:19:07;7.43;;;4.00;;
6537;SDS011;3302;52.508;13.454;2022-08-21T02:21:34;4.97;;;3.47;;
6537;SDS011;3302;52.508;13.454;2022-08-21T02:24:00;4.23;;;3.60;;
6537;SDS011;3302;52.508;13.454;2022-08-21T02:26:26;5.17;;;3.53;;
6537;SDS011;3302;52.508;13.454;2022-08-21T02:28:52;4.40;;;3.30;;
6537;SDS011;3302;52.508;13.454;2022-08-21T02:31:18;4.57;;;3.47;;
6537;SDS011;3302;52.508;13.454;2022-08-21T02:33:44;4.00;;;3.47;;
6537;SDS011;3302;52.508;13.454;2022-08-21T02:36:10;3.80;;;3.50;;
6537;SDS011;3302;52.508;13.454;2022-08-21T02:38:37;7.77;;;3.40;;
6537;SDS011;3302;52.508;13.454;2022-08-21T02:41:06;6.97;;;3.80;;
6537;SDS011;3302;52.508;13.454;2022-08-21T02:43:34;4.13;;;3.37;;
6537;SDS011;3302;52.508;13.454;2022-08-21T02:46:00;6.00;;;3.43;;
6537;SDS011;3302;52.508;13.454;2022-08-21T02:48:30;4.73;;;3.50;;
6537;SDS011;3302;52.508;13.454;2022-08-21T02:51:02;6.67;;;3.30;;
6537;SDS011;3302;52.508;13.454;2022-08-21T02:53:30;8.50;;;3.37;;
6537;SDS011;3302;52.508;13.454;2022-08-21T02:55:57;6.77;;;3.10;;
6537;SDS011;3302;52.508;13.454;2022-08-21T02:58:26;4.53;;;3.27;;
6537;SDS011;3302;52.508;13.454;2022-08-21T03:00:55;4.37;;;2.87;;
6537;SDS011;3302;52.508;13.454;2022-08-21T03:03:21;4.17;;;2.90;;
6537;SDS011;3302;52.508;13.454;2022-08-21T03:05:47;7.80;;;3.40;;
6537;SDS011;3302;52.508;13.454;2022-08-21T03:08:14;8.53;;;3.40;;
6537;SDS011;3302;52.508;13.454;2022-08-21T03:10:42;4.13;;;3.17;;
6537;SDS011;3302;52.508;13.454;2022-08-21T03:13:10;6.13;;;3.57;;
6537;SDS011;3302;52.508;13.454;2022-08-21T03:15:36;7.53;;;3.17;;
6537;SDS011;3302;52.508;13.454;2022-08-21T03:18:03;5.30;;;2.83;;
6537;SDS011;3302;52.508;13.454;2022-08-21T03:20:30;5.50;;;3.17;;
6537;SDS011;3302;52.508;13.454;2022-08-21T03:22:57;5.30;;;2.93;;
6537;SDS011;3302;52.508;13.454;2022-08-21T03:25:25;5.60;;;3.00;;
6537;SDS011;3302;52.508;13.454;2022-08-21T03:27:51;6.30;;;3.10;;
6537;SDS011;3302;52.508;13.454;2022-08-21T03:30:18;3.80;;;2.80;;
6537;SDS011;3302;52.508;13.454;2022-08-21T03:32:45;5.90;;;2.93;;
6537;SDS011;3302;52.508;13.454;2022-08-21T03:35:13;5.80;;;3.03;;
6537;SDS011;3302;52.508;13.454;2022-08-21T03:37:39;5.43;;;2.60;;
6537;SDS011;3302;52.508;13.454;2022-08-21T03:40:06;7.13;;;2.67;;
6537;SDS011;3302;52.508;13.454;2022-08-21T03:42:33;5.30;;;2.83;;
6537;SDS011;3302;52.508;13.454;2022-08-21T03:44:59;3.47;;;2.70;;
6537;SDS011;3302;52.508;13.454;2022-08-21T03:47:25;8.03;;;3.27;;
6537;SDS011;3302;52.508;13.454;2022-08-21T03:49:51;4.20;;;2.60;;
6537;SDS011;3302;52.508;13.454;2022-08-21T03:52:16;5.40;;;2.83;;
6537;SDS011;3302;52.508;13.454;2022-08-21T03:54:43;6.30;;;2.83;;
6537;SDS011;3302;52.508;13.454;2022-08-21T03:57:10;5.00;;;2.73;;
6537;SDS011;3302;52.508;13.454;2022-08-21T03:59:36;4.43;;;2.60;;
6537;SDS011;3302;52.508;13.454;2022-08-21T04:02:03;4.07;;;2.60;;
6537;SDS011;3302;52.508;13.454;2022-08-21T04:04:31;5.13;;;3.23;;
6537;SDS011;3302;52.508;13.454;2022-08-21T04:06:59;3.33;;;2.53;;
6537;SDS011;3302;52.508;13.454;2022-08-21T04:09:24;4.20;;;2.83;;
6537;SDS011;3302;52.508;13.454;2022-08-21T04:11:51;5.57;;;2.80;;
6537;SDS011;3302;52.508;13.454;2022-08-21T04:14:17;4.20;;;2.87;;
6537;SDS011;3302;52.508;13.454;2022-08-21T04:16:43;4.07;;;2.57;;
6537;SDS011;3302;52.508;13.454;2022-08-21T04:19:11;5.60;;;2.67;;
6537;SDS011;3302;52.508;13.454;2022-08-21T04:21:38;6.57;;;2.63;;
6537;SDS011;3302;52.508;13.454;2022-08-21T04:24:05;3.50;;;2.60;;
6537;SDS011;3302;52.508;13.454;2022-08-21T04:26:32;7.57;;;2.83;;
6537;SDS011;3302;52.508;13.454;2022-08-21T04:28:59;4.47;;;2.60;;
6537;SDS011;3302;52.508;13.454;2022-08-21T04:31:26;4.13;;;2.67;;
6537;SDS011;3302;52.508;13.454;2022-08-21T04:33:53;5.27;;;2.70;;
6537;SDS011;3302;52.508;13.454;2022-08-21T04:36:20;3.80;;;2.53;;
6537;SDS011;3302;52.508;13.454;2022-08-21T04:38:45;4.23;;;2.67;;
6537;SDS011;3302;52.508;13.454;2022-08-21T04:41:12;5.73;;;2.40;;
6537;SDS011;3302;52.508;13.454;2022-08-21T04:43:38;4.17;;;2.43;;
6537;SDS011;3302;52.508;13.454;2022-08-21T04:46:04;4.37;;;2.43;;
6537;SDS011;3302;52.508;13.454;2022-08-21T04:48:30;6.13;;;2.60;;
6537;SDS011;3302;52.508;13.454;2022-08-21T04:51:03;4.67;;;2.37;;
6537;SDS011;3302;52.508;13.454;2022-08-21T04:53:40;4.50;;;2.50;;
6537;SDS011;3302;52.508;13.454;2022-08-21T04:56:11;4.17;;;2.50;;
6537;SDS011;3302;52.508;13.454;2022-08-21T04:58:40;3.80;;;2.33;;
6537;SDS011;3302;52.508;13.454;2022-08-21T05:01:08;4.87;;;2.40;;
6537;SDS011;3302;52.508;13.454;2022-08-21T05:03:38;4.83;;;2.83;;
6537;SDS011;3302;52.508;13.454;2022-08-21T05:06:06;11.40;;;2.50;;
6537;SDS011;3302;52.508;13.454;2022-08-21T05:08:35;5.87;;;2.30;;
6537;SDS011;3302;52.508;13.454;2022-08-21T05:11:02;7.47;;;2.50;;
6537;SDS011;3302;52.508;13.454;2022-08-21T05:13:28;7.23;;;2.73;;
6537;SDS011;3302;52.508;13.454;2022-08-21T05:15:54;4.80;;;2.57;;
6537;SDS011;3302;52.508;13.454;2022-08-21T05:18:20;4.73;;;2.30;;
6537;SDS011;3302;52.508;13.454;2022-08-21T05:20:46;4.53;;;2.23;;
6537;SDS011;3302;52.508;13.454;2022-08-21T05:23:12;4.30;;;2.27;;
6537;SDS011;3302;52.508;13.454;2022-08-21T05:25:39;7.07;;;2.30;;
6537;SDS011;3302;52.508;13.454;2022-08-21T05:28:06;6.47;;;2.63;;
6537;SDS011;3302;52.508;13.454;2022-08-21T05:30:32;4.53;;;2.57;;
6537;SDS011;3302;52.508;13.454;2022-08-21T05:32:59;5.43;;;2.50;;
6537;SDS011;3302;52.508;13.454;2022-08-21T05:35:28;4.70;;;2.20;;
6537;SDS011;3302;52.508;13.454;2022-08-21T05:37:54;3.83;;;2.60;;
6537;SDS011;3302;52.508;13.454;2022-08-21T05:40:21;5.97;;;2.30;;
6537;SDS011;3302;52.508;13.454;2022-08-21T05:42:47;3.83;;;2.20;;
6537;SDS011;3302;52.508;13.454;2022-08-21T05:45:13;4.00;;;2.20;;
6537;SDS011;3302;52.508;13.454;2022-08-21T05:47:38;4.53;;;2.30;;
6537;SDS011;3302;52.508;13.454;2022-08-21T05:50:04;3.97;;;2.43;;
6537;SDS011;3302;52.508;13.454;2022-08-21T05:52:31;4.90;;;2.10;;
6537;SDS011;3302;52.508;13.454;2022-08-21T05:54:56;5.00;;;2.43;;
6537;SDS011;3302;52.508;13.454;2022-08-21T05:57:22;6.00;;;2.30;;
6537;SDS011;3302;52.508;13.454;2022-08-21T05:59:48;4.27;;;2.40;;
6537;SDS011;3302;52.508;13.454;2022-08-21T06:02:17;5.90;;;2.23;;
6537;SDS011;3302;52.508;13.454;2022-08-21T06:04:43;5.70;;;2.60;;
6537;SDS011;3302;52.508;13.454;2022-08-21T06:07:09;2.53;;;2.03;;
6537;SDS011;3302;52.508;13.454;2022-08-21T06:09:36;5.47;;;2.60;;
6537;SDS011;3302;52.508;13.454;2022-08-21T06:12:09;4.47;;;2.40;;
6537;SDS011;3302;52.508;13.454;2022-08-21T06:14:36;4.27;;;2.10;;
6537;SDS011;3302;52.508;13.454;2022-08-21T06:17:05;3.37;;;1.93;;
6537;SDS011;3302;52.508;13.454;2022-08-21T06:19:33;5.70;;;2.20;;
6537;SDS011;3302;52.508;13.454;2022-08-21T06:21:59;4.20;;;2.23;;
6537;SDS011;3302;52.508;13.454;2022-08-21T06:24:25;4.77;;;2.20;;
6537;SDS011;3302;52.508;13.454;2022-08-21T06:26:51;6.20;;;2.07;;
6537;SDS011;3302;52.508;13.454;2022-08-21T06:29:16;3.20;;;2.30;;
6537;SDS011;3302;52.508;13.454;2022-08-21T06:31:43;5.13;;;2.73;;
6537;SDS011;3302;52.508;13.454;2022-08-21T06:34:09;4.30;;;1.97;;
6537;SDS011;3302;52.508;13.454;2022-08-21T06:36:36;4.03;;;2.17;;
6537;SDS011;3302;52.508;13.454;2022-08-21T06:39:02;3.83;;;2.07;;
6537;SDS011;3302;52.508;13.454;2022-08-21T06:41:28;5.53;;;2.27;;
6537;SDS011;3302;52.508;13.454;2022-08-21T06:43:55;5.57;;;2.00;;
6537;SDS011;3302;52.508;13.454;2022-08-21T06:46:21;5.80;;;2.20;;
6537;SDS011;3302;52.508;13.454;2022-08-21T06:48:48;3.47;;;1.93;;
6537;SDS011;3302;52.508;13.454;2022-08-21T06:51:14;5.87;;;2.43;;
6537;SDS011;3302;52.508;13.454;2022-08-21T06:53:40;7.60;;;2.47;;
6537;SDS011;3302;52.508;13.454;2022-08-21T06:56:06;6.33;;;2.50;;
6537;SDS011;3302;52.508;13.454;2022-08-21T06:58:33;5.10;;;2.43;;
6537;SDS011;3302;52.508;13.454;2022-08-21T07:00:59;4.10;;;2.00;;
6537;SDS011;3302;52.508;13.454;2022-08-21T07:03:26;4.27;;;2.10;;
6537;SDS011;3302;52.508;13.454;2022-08-21T07:05:59;3.73;;;2.30;;
6537;SDS011;3302;52.508;13.454;2022-08-21T07:08:25;4.87;;;2.47;;
6537;SDS011;3302;52.508;13.454;2022-08-21T07:10:53;4.77;;;2.33;;
6537;SDS011;3302;52.508;13.454;2022-08-21T07:13:21;5.00;;;2.30;;
6537;SDS011;3302;52.508;13.454;2022-08-21T07:15:46;5.13;;;2.50;;
6537;SDS011;3302;52.508;13.454;2022-08-21T07:18:13;4.40;;;2.30;;
6537;SDS011;3302;52.508;13.454;2022-08-21T07:20:39;6.17;;;2.10;;
6537;SDS011;3302;52.508;13.454;2022-08-21T07:23:08;3.37;;;2.10;;
6537;SDS011;3302;52.508;13.454;2022-08-21T07:25:37;6.90;;;2.33;;
6537;SDS011;3302;52.508;13.454;2022-08-21T07:28:03;6.63;;;2.73;;
6537;SDS011;3302;52.508;13.454;2022-08-21T07:30:29;5.07;;;2.10;;
6537;SDS011;3302;52.508;13.454;2022-08-21T07:32:54;3.70;;;1.90;;
6537;SDS011;3302;52.508;13.454;2022-08-21T07:35:20;5.00;;;2.03;;
6537;SDS011;3302;52.508;13.454;2022-08-21T07:37:47;4.57;;;2.00;;
6537;SDS011;3302;52.508;13.454;2022-08-21T07:40:13;5.93;;;1.90;;
6537;SDS011;3302;52.508;13.454;2022-08-21T07:42:39;3.70;;;2.03;;
6537;SDS011;3302;52.508;13.454;2022-08-21T07:45:06;3.07;;;1.90;;
6537;SDS011;3302;52.508;13.454;2022-08-21T07:47:33;4.70;;;2.00;;
6537;SDS011;3302;52.508;13.454;2022-08-21T07:49:59;4.20;;;1.70;;
6537;SDS011;3302;52.508;13.454;2022-08-21T07:52:25;4.27;;;1.83;;
6537;SDS011;3302;52.508;13.454;2022-08-21T07:54:50;3.73;;;1.57;;
6537;SDS011;3302;52.508;13.454;2022-08-21T07:57:16;2.70;;;1.40;;
6537;SDS011;3302;52.508;13.454;2022-08-21T07:59:42;2.87;;;1.57;;
6537;SDS011;3302;52.508;13.454;2022-08-21T08:02:08;3.90;;;1.73;;
6537;SDS011;3302;52.508;13.454;2022-08-21T08:04:33;2.57;;;1.60;;
6537;SDS011;3302;52.508;13.454;2022-08-21T08:06:59;3.20;;;1.70;;
6537;SDS011;3302;52.508;13.454;2022-08-21T08:09:25;3.20;;;1.77;;
6537;SDS011;3302;52.508;13.454;2022-08-21T08:11:51;4.17;;;1.70;;
6537;SDS011;3302;52.508;13.454;2022-08-21T08:14:16;2.37;;;1.43;;
6537;SDS011;3302;52.508;13.454;2022-08-21T08:16:42;3.47;;;1.77;;
6537;SDS011;3302;52.508;13.454;2022-08-21T08:19:08;3.93;;;1.70;;
6537;SDS011;3302;52.508;13.454;2022-08-21T08:21:34;4.87;;;2.20;;
6537;SDS011;3302;52.508;13.454;2022-08-21T08:24:01;2.07;;;1.70;;
6537;SDS011;3302;52.508;13.454;2022-08-21T08:26:27;3.87;;;1.90;;
6537;SDS011;3302;52.508;13.454;2022-08-21T08:28:53;2.97;;;1.60;;
6537;SDS011;3302;52.508;13.454;2022-08-21T08:31:19;4.40;;;2.03;;
6537;SDS011;3302;52.508;13.454;2022-08-21T08:33:45;3.93;;;1.70;;
6537;SDS011;3302;52.508;13.454;2022-08-21T08:36:15;3.83;;;1.83;;
6537;SDS011;3302;52.508;13.454;2022-08-21T08:38:42;4.53;;;1.97;;
6537;SDS011;3302;52.508;13.454;2022-08-21T08:41:18;4.20;;;1.80;;
6537;SDS011;3302;52.508;13.454;2022-08-21T08:43:54;5.10;;;2.30;;
6537;SDS011;3302;52.508;13.454;2022-08-21T08:46:30;5.90;;;2.10;;
6537;SDS011;3302;52.508;13.454;2022-08-21T08:52:03;4.03;;;1.93;;
6537;SDS011;3302;52.508;13.454;2022-08-21T08:54:45;4.17;;;2.07;;
6537;SDS011;3302;52.508;13.454;2022-08-21T08:57:17;3.57;;;2.10;;
6537;SDS011;3302;52.508;13.454;2022-08-21T08:59:49;3.73;;;1.90;;
6537;SDS011;3302;52.508;13.454;2022-08-21T09:02:17;6.10;;;4.23;;
6537;SDS011;3302;52.508;13.454;2022-08-21T09:04:45;2.13;;;1.60;;
6537;SDS011;3302;52.508;13.454;2022-08-21T09:07:16;4.87;;;2.03;;
6537;SDS011;3302;52.508;13.454;2022-08-21T09:24:59;4.30;;;1.70;;
6537;SDS011;3302;52.508;13.454;2022-08-21T09:27:34;3.53;;;1.80;;
6537;SDS011;3302;52.508;13.454;2022-08-21T09:30:02;3.47;;;1.73;;
6537;SDS011;3302;52.508;13.454;2022-08-21T09:32:31;3.20;;;1.70;;
6537;SDS011;3302;52.508;13.454;2022-08-21T09:35:08;3.50;;;1.80;;
6537;SDS011;3302;52.508;13.454;2022-08-21T09:37:47;6.83;;;2.00;;
6537;SDS011;3302;52.508;13.454;2022-08-21T09:40:21;2.67;;;1.60;;
6537;SDS011;3302;52.508;13.454;2022-08-21T09:43:22;5.47;;;2.23;;
6537;SDS011;3302;52.508;13.454;2022-08-21T09:45:49;4.03;;;1.90;;
6537;SDS011;3302;52.508;13.454;2022-08-21T09:48:38;4.77;;;2.20;;
6537;SDS011;3302;52.508;13.454;2022-08-21T09:51:13;4.40;;;1.90;;
6537;SDS011;3302;52.508;13.454;2022-08-21T09:53:55;5.57;;;2.00;;
6537;SDS011;3302;52.508;13.454;2022-08-21T09:56:32;4.33;;;2.10;;
6537;SDS011;3302;52.508;13.454;2022-08-21T10:01:58;5.40;;;2.00;;
6537;SDS011;3302;52.508;13.454;2022-08-21T10:04:31;4.13;;;2.17;;
6537;SDS011;3302;52.508;13.454;2022-08-21T10:09:35;4.03;;;1.90;;
6537;SDS011;3302;52.508;13.454;2022-08-21T10:17:18;3.30;;;1.80;;
6537;SDS011;3302;52.508;13.454;2022-08-21T10:20:01;3.97;;;1.83;;
6537;SDS011;3302;52.508;13.454;2022-08-21T10:29:02;5.67;;;1.77;;
6537;SDS011;3302;52.508;13.454;2022-08-21T10:31:48;4.83;;;1.90;;
6537;SDS011;3302;52.508;13.454;2022-08-21T10:40:15;3.80;;;1.87;;
6537;SDS011;3302;52.508;13.454;2022-08-21T10:43:02;3.70;;;1.90;;
6537;SDS011;3302;52.508;13.454;2022-08-21T10:45:42;5.77;;;2.27;;
6537;SDS011;3302;52.508;13.454;2022-08-21T10:48:36;4.70;;;1.77;;
6537;SDS011;3302;52.508;13.454;2022-08-21T10:51:19;4.83;;;2.00;;
6537;SDS011;3302;52.508;13.454;2022-08-21T10:54:01;7.23;;;2.30;;
6537;SDS011;3302;52.508;13.454;2022-08-21T10:56:36;6.27;;;1.87;;
6537;SDS011;3302;52.508;13.454;2022-08-21T11:02:03;3.43;;;1.70;;
6537;SDS011;3302;52.508;13.454;2022-08-21T11:04:52;3.07;;;1.63;;
6537;SDS011;3302;52.508;13.454;2022-08-21T11:07:27;3.80;;;1.90;;
6537;SDS011;3302;52.508;13.454;2022-08-21T11:09:58;4.97;;;1.80;;
6537;SDS011;3302;52.508;13.454;2022-08-21T11:12:51;6.03;;;1.80;;
6537;SDS011;3302;52.508;13.454;2022-08-21T11:18:31;6.87;;;2.00;;
6537;SDS011;3302;52.508;13.454;2022-08-21T11:26:17;3.10;;;1.70;;
6537;SDS011;3302;52.508;13.454;2022-08-21T11:28:55;2.90;;;1.60;;
6537;SDS011;3302;52.508;13.454;2022-08-21T11:37:06;2.80;;;1.60;;
6537;SDS011;3302;52.508;13.454;2022-08-21T11:39:44;2.97;;;1.47;;
6537;SDS011;3302;52.508;13.454;2022-08-21T11:45:27;2.37;;;1.43;;
6537;SDS011;3302;52.508;13.454;2022-08-21T11:50:52;3.23;;;1.70;;
6537;SDS011;3302;52.508;13.454;2022-08-21T11:53:24;3.10;;;2.20;;
6537;SDS011;3302;52.508;13.454;2022-08-21T11:55:57;2.03;;;1.43;;
6537;SDS011;3302;52.508;13.454;2022-08-21T11:58:40;1.83;;;1.53;;
6537;SDS011;3302;52.508;13.454;2022-08-21T12:03:38;2.47;;;1.60;;
6537;SDS011;3302;52.508;13.454;2022-08-21T12:06:11;1.73;;;1.23;;
6537;SDS011;3302;52.508;13.454;2022-08-21T12:08:40;2.20;;;1.40;;
6537;SDS011;3302;52.508;13.454;2022-08-21T12:11:09;2.27;;;1.40;;
6537;SDS011;3302;52.508;13.454;2022-08-21T12:13:57;2.47;;;1.30;;
6537;SDS011;3302;52.508;13.454;2022-08-21T12:16:34;1.90;;;1.30;;
6537;SDS011;3302;52.508;13.454;2022-08-21T12:21:53;2.30;;;1.57;;
6537;SDS011;3302;52.508;13.454;2022-08-21T12:27:28;2.37;;;1.57;;
6537;SDS011;3302;52.508;13.454;2022-08-21T12:30:06;1.67;;;1.23;;
6537;SDS011;3302;52.508;13.454;2022-08-21T12:32:54;2.17;;;1.30;;
6537;SDS011;3302;52.508;13.454;2022-08-21T12:35:38;2.00;;;1.60;;
6537;SDS011;3302;52.508;13.454;2022-08-21T12:38:26;2.80;;;1.43;;
6537;SDS011;3302;52.508;13.454;2022-08-21T12:46:02;2.27;;;1.30;;
6537;SDS011;3302;52.508;13.454;2022-08-21T12:48:31;2.90;;;1.67;;
6537;SDS011;3302;52.508;13.454;2022-08-21T12:51:11;3.37;;;1.30;;
6537;SDS011;3302;52.508;13.454;2022-08-21T12:56:12;1.60;;;1.40;;
6537;SDS011;3302;52.508;13.454;2022-08-21T12:58:44;2.93;;;2.60;;
6537;SDS011;3302;52.508;13.454;2022-08-21T13:03:49;3.57;;;2.90;;
6537;SDS011;3302;52.508;13.454;2022-08-21T13:06:18;2.47;;;1.47;;
6537;SDS011;3302;52.508;13.454;2022-08-21T13:08:46;2.37;;;1.40;;
6537;SDS011;3302;52.508;13.454;2022-08-21T13:11:16;2.80;;;1.63;;
6537;SDS011;3302;52.508;13.454;2022-08-21T13:13:48;2.47;;;1.50;;
6537;SDS011;3302;52.508;13.454;2022-08-21T13:16:18;2.57;;;1.40;;
6537;SDS011;3302;52.508;13.454;2022-08-21T13:18:55;4.17;;;1.30;;
6537;SDS011;3302;52.508;13.454;2022-08-21T13:21:30;4.30;;;1.40;;
6537;SDS011;3302;52.508;13.454;2022-08-21T13:24:20;2.23;;;1.40;;
6537;SDS011;3302;52.508;13.454;2022-08-21T13:26:54;2.23;;;1.47;;
6537;SDS011;3302;52.508;13.454;2022-08-21T13:29:22;2.20;;;1.50;;
6537;SDS011;3302;52.508;13.454;2022-08-21T13:31:53;3.13;;;1.73;;
6537;SDS011;3302;52.508;13.454;2022-08-21T13:34:26;2.00;;;1.80;;
6537;SDS011;3302;52.508;13.454;2022-08-21T13:37:03;2.73;;;1.47;;
6537;SDS011;3302;52.508;13.454;2022-08-21T13:39:31;2.37;;;1.80;;
6537;SDS011;3302;52.508;13.454;2022-08-21T13:41:58;3.37;;;2.10;;
6537;SDS011;3302;52.508;13.454;2022-08-21T13:44:35;5.20;;;2.00;;
6537;SDS011;3302;52.508;13.454;2022-08-21T13:47:05;3.03;;;1.40;;
6537;SDS011;3302;52.508;13.454;2022-08-21T13:49:36;2.70;;;1.40;;
6537;SDS011;3302;52.508;13.454;2022-08-21T13:52:04;3.30;;;1.70;;
6537;SDS011;3302;52.508;13.454;2022-08-21T13:54:39;1.80;;;1.10;;
6537;SDS011;3302;52.508;13.454;2022-08-21T13:57:17;3.17;;;1.60;;
6537;SDS011;3302;52.508;13.454;2022-08-21T13:59:44;3.00;;;1.90;;
6537;SDS011;3302;52.508;13.454;2022-08-21T14:02:14;1.87;;;1.63;;
6537;SDS011;3302;52.508;13.454;2022-08-21T14:07:21;3.23;;;1.90;;
6537;SDS011;3302;52.508;13.454;2022-08-21T14:09:51;6.10;;;1.83;;
6537;SDS011;3302;52.508;13.454;2022-08-21T14:12:35;6.40;;;1.90;;
6537;SDS011;3302;52.508;13.454;2022-08-21T14:15:07;4.17;;;2.20;;
6537;SDS011;3302;52.508;13.454;2022-08-21T14:17:38;3.77;;;2.07;;
6537;SDS011;3302;52.508;13.454;2022-08-21T14:20:07;4.17;;;2.00;;
6537;SDS011;3302;52.508;13.454;2022-08-21T14:22:49;3.27;;;1.93;;
6537;SDS011;3302;52.508;13.454;2022-08-21T14:27:54;4.80;;;2.60;;
6537;SDS011;3302;52.508;13.454;2022-08-21T14:30:29;4.60;;;2.47;;
6537;SDS011;3302;52.508;13.454;2022-08-21T14:32:58;2.50;;;1.97;;
6537;SDS011;3302;52.508;13.454;2022-08-21T14:35:24;5.27;;;1.90;;
6537;SDS011;3302;52.508;13.454;2022-08-21T14:37:51;3.03;;;1.90;;
6537;SDS011;3302;52.508;13.454;2022-08-21T14:40:18;2.83;;;1.87;;
6537;SDS011;3302;52.508;13.454;2022-08-21T14:42:45;4.10;;;1.93;;
6537;SDS011;3302;52.508;13.454;2022-08-21T14:45:27;6.13;;;2.57;;
6537;SDS011;3302;52.508;13.454;2022-08-21T14:47:56;3.37;;;1.90;;
6537;SDS011;3302;52.508;13.454;2022-08-21T14:50:22;5.33;;;2.50;;
6537;SDS011;3302;52.508;13.454;2022-08-21T14:52:49;4.77;;;2.50;;
6537;SDS011;3302;52.508;13.454;2022-08-21T14:55:15;5.67;;;2.77;;
6537;SDS011;3302;52.508;13.454;2022-08-21T14:57:44;6.43;;;2.77;;
6537;SDS011;3302;52.508;13.454;2022-08-21T15:00:14;3.47;;;2.33;;
6537;SDS011;3302;52.508;13.454;2022-08-21T15:02:42;3.70;;;1.87;;
6537;SDS011;3302;52.508;13.454;2022-08-21T15:05:09;4.13;;;2.10;;
6537;SDS011;3302;52.508;13.454;2022-08-21T15:07:35;3.60;;;2.20;;
6537;SDS011;3302;52.508;13.454;2022-08-21T15:10:01;3.97;;;2.33;;
6537;SDS011;3302;52.508;13.454;2022-08-21T15:12:27;6.87;;;2.50;;
6537;SDS011;3302;52.508;13.454;2022-08-21T15:14:54;3.73;;;1.83;;
6537;SDS011;3302;52.508;13.454;2022-08-21T15:17:20;5.23;;;2.10;;
6537;SDS011;3302;52.508;13.454;2022-08-21T15:19:46;4.97;;;2.37;;
6537;SDS011;3302;52.508;13.454;2022-08-21T15:22:11;4.83;;;2.50;;
6537;SDS011;3302;52.508;13.454;2022-08-21T15:24:37;3.50;;;2.23;;
6537;SDS011;3302;52.508;13.454;2022-08-21T15:27:03;3.80;;;1.93;;
6537;SDS011;3302;52.508;13.454;2022-08-21T15:29:32;5.73;;;2.50;;
6537;SDS011;3302;52.508;13.454;2022-08-21T15:32:02;4.10;;;2.10;;
6537;SDS011;3302;52.508;13.454;2022-08-21T15:34:49;3.07;;;2.03;;
6537;SDS011;3302;52.508;13.454;2022-08-21T15:37:16;3.07;;;2.27;;
6537;SDS011;3302;52.508;13.454;2022-08-21T15:39:42;4.77;;;3.20;;
6537;SDS011;3302;52.508;13.454;2022-08-21T15:42:08;5.83;;;4.40;;
6537;SDS011;3302;52.508;13.454;2022-08-21T15:44:36;7.87;;;6.03;;
6537;SDS011;3302;52.508;13.454;2022-08-21T15:47:11;3.77;;;2.83;;
6537;SDS011;3302;52.508;13.454;2022-08-21T15:49:39;4.57;;;2.90;;
6537;SDS011;3302;52.508;13.454;2022-08-21T15:52:07;4.13;;;2.90;;
6537;SDS011;3302;52.508;13.454;2022-08-21T15:54:33;4.07;;;2.40;;
6537;SDS011;3302;52.508;13.454;2022-08-21T15:56:59;4.83;;;2.70;;
6537;SDS011;3302;52.508;13.454;2022-08-21T15:59:25;4.73;;;2.10;;
6537;SDS011;3302;52.508;13.454;2022-08-21T16:01:52;3.33;;;2.20;;
6537;SDS011;3302;52.508;13.454;2022-08-21T16:04:19;4.17;;;2.30;;
6537;SDS011;3302;52.508;13.454;2022-08-21T16:06:48;2.87;;;2.00;;
6537;SDS011;3302;52.508;13.454;2022-08-21T16:09:14;5.00;;;2.33;;
6537;SDS011;3302;52.508;13.454;2022-08-21T16:11:41;3.23;;;2.00;;
6537;SDS011;3302;52.508;13.454;2022-08-21T16:14:07;7.17;;;2.13;;
6537;SDS011;3302;52.508;13.454;2022-08-21T16:16:35;4.50;;;2.93;;
6537;SDS011;3302;52.508;13.454;2022-08-21T16:19:02;5.10;;;2.33;;
6537;SDS011;3302;52.508;13.454;2022-08-21T16:21:31;3.27;;;1.93;;
6537;SDS011;3302;52.508;13.454;2022-08-21T16:23:58;3.80;;;2.17;;
6537;SDS011;3302;52.508;13.454;2022-08-21T16:26:24;3.33;;;2.50;;
6537;SDS011;3302;52.508;13.454;2022-08-21T16:28:50;6.00;;;2.40;;
6537;SDS011;3302;52.508;13.454;2022-08-21T16:31:19;3.47;;;2.40;;
6537;SDS011;3302;52.508;13.454;2022-08-21T16:33:47;4.53;;;2.67;;
6537;SDS011;3302;52.508;13.454;2022-08-21T16:36:17;5.37;;;2.80;;
6537;SDS011;3302;52.508;13.454;2022-08-21T16:38:43;4.50;;;2.97;;
6537;SDS011;3302;52.508;13.454;2022-08-21T16:41:10;3.23;;;2.30;;